Bei Facebook empfehlenBei Twitter postenGoogle plusPinterest

Das Wetter im Erzgebirge am 04.09.2016

Wetter und Klima am 04.09.2016 Holzhau im Erzgebirge (630m ü.NN)
Letzte gemessene Temperatur und Uhrzeit der Messung23:45:00 Uhr12.60 °C
Temperatur (Maximum / Höchstwert) und Uhrzeit der Messung11:30:00 Uhr23.90 °C
Temperatur (Minimum / Tiefstwert) und Uhrzeit der Messung04:00:0010.20 °C
Errechneter Absolutwert der Temperaturschwankungen zwischen Tmin und Tmax des Tages13.70 K
Errechnete Tagesmitteltemperatur15.88333 °C
Gesamt - Niederschlag des Tages (in flüssiger Form)16.57 Liter / m²
Luftdruck (Maximum / Höchstwert) und Zeitpunkt der Messung00:30:00 Uhr1014.20 hPa
Luftdruck (Minimum / Tiefstwert) und Zeitpunkt der Messung22:00:00 Uhr1008.40 hPa
Errechneter Absolutwert der Luftdruckschwankungen des Tages5.80 hPa
Höchste gemessene Windgeschwindigkeit und Uhrzeit der Messung23:45:00 Uhr0.00 km/h
Errechnete Windhäufigkeit in Relation zu den Messwerten des Tages0.00000 %
Niedrigste Windkühle (Windchill) und Zeitpunkt der Messung04:00:00 Uhr10.20 °C
Taupunkt (Maximum / Höchstwert) und Uhrzeit der Messung16:45:00 Uhr16.20 °C
Taupunkt (Minimum / Tiefstwert) und Uhrzeit der Messung04:00:008.60 °C
Anzahl der automatisch eingelesenen Messwerte 96

Detaillierte Wetter- und Klima- Messwerte für den 04.09.2016 in Holzhau im Erzgebirge (630m ü.NN)
ZeitTemperaturLuftdruckRel. LuftfeuchteWindWindrichtungWindchillTaupunktNiederschlag l/m²
23:45:0012.60 °C1008.90 hPa91.00 %11.20 °C16.57
23:30:0012.50 °C1008.70 hPa91.00 %11.10 °C16.57
23:15:0012.40 °C1008.70 hPa90.00 %10.80 °C16.57
23:00:0012.30 °C1008.70 hPa90.00 %10.70 °C16.57
22:45:0012.20 °C1008.50 hPa90.00 %10.60 °C16.57
22:30:0012.20 °C1008.60 hPa89.00 %10.40 °C16.57
22:15:0012.10 °C1008.50 hPa89.00 %10.30 °C16.57
22:00:0011.90 °C1008.40 hPa88.00 %10.00 °C16.57
21:45:0011.90 °C1008.60 hPa88.00 %10.00 °C16.57
21:30:0011.90 °C1008.90 hPa87.00 %9.80 °C16.06
21:15:0012.10 °C1009.50 hPa87.00 %10.00 °C15.54
21:00:0012.20 °C1009.70 hPa86.00 %9.90 °C13.98
20:45:0012.30 °C1009.50 hPa85.00 %9.90 °C10.88
20:30:0012.50 °C1009.70 hPa84.00 %9.90 °C8.29
20:15:0012.90 °C1009.70 hPa82.00 %9.90 °C6.21
20:00:0013.90 °C1010.10 hPa80.00 %10.50 °C4.66
19:45:0016.80 °C1010.10 hPa74.00 %12.10 °C0.52
19:30:0017.50 °C1008.70 hPa74.00 %12.80 °C0.52
19:15:0017.60 °C1008.70 hPa73.00 %12.70 °C0.52
19:00:0017.90 °C1008.80 hPa73.00 %13.00 °C0.52
18:45:0018.40 °C1008.90 hPa72.00 %13.30 °C0.52
18:30:0019.00 °C1008.90 hPa71.00 %13.60 °C0.52
18:15:0019.30 °C1009.40 hPa72.00 %14.10 °C0.52
18:00:0019.20 °C1009.30 hPa72.00 %14.00 °C0.52
17:45:0019.50 °C1009.40 hPa72.00 %14.30 °C0.52
17:30:0019.40 °C1009.60 hPa72.00 %14.20 °C0.52
17:15:0020.00 °C1009.90 hPa73.00 %15.00 °C0.52
17:00:0020.10 °C1009.90 hPa75.00 %15.50 °C0.52
16:45:0019.90 °C1009.80 hPa79.00 %16.20 °C0.52
16:30:0018.80 °C1009.90 hPa85.00 %16.20 °C0.52
16:15:0016.90 °C1010.20 hPa85.00 %14.40 °C0.52
16:00:0016.50 °C1010.40 hPa85.00 %14.00 °C0.52
15:45:0016.10 °C1010.50 hPa84.00 %13.40 °C0.52
15:30:0016.10 °C1010.60 hPa83.00 %13.20 °C 
15:15:0016.30 °C1010.80 hPa81.00 %13.00 °C 
15:00:0016.40 °C1011.10 hPa79.00 %12.80 °C 
14:45:0016.80 °C1011.20 hPa77.00 %12.70 °C 
14:30:0017.90 °C1011.30 hPa73.00 %13.00 °C 
14:15:0020.60 °C1011.20 hPa65.00 %13.80 °C 
14:00:0021.50 °C1010.80 hPa62.00 %13.90 °C 
13:45:0021.90 °C1011.00 hPa60.00 %13.80 °C 
13:30:0022.20 °C1011.00 hPa60.00 %14.10 °C 
13:15:0022.10 °C1011.20 hPa59.00 %13.70 °C 
13:00:0022.40 °C1011.10 hPa58.00 %13.70 °C 
12:45:0022.50 °C1011.10 hPa56.00 %13.30 °C 
12:30:0022.40 °C1011.30 hPa53.00 %12.40 °C 
12:15:0022.80 °C1011.30 hPa52.00 %12.40 °C 
12:00:0023.30 °C1011.20 hPa51.00 %12.60 °C 
11:45:0023.60 °C1011.20 hPa51.00 %12.90 °C 
11:30:0023.90 °C1011.10 hPa52.00 %13.40 °C 
11:15:0023.40 °C1011.10 hPa53.00 %13.30 °C 
11:00:0022.90 °C1011.10 hPa54.00 %13.10 °C 
10:45:0022.70 °C1011.10 hPa58.00 %14.00 °C 
10:30:0022.40 °C1011.30 hPa58.00 %13.70 °C 
10:15:0021.90 °C1011.50 hPa59.00 %13.50 °C 
10:00:0021.90 °C1011.40 hPa61.00 %14.00 °C 
09:45:0021.30 °C1011.40 hPa67.00 %14.90 °C 
09:30:0020.90 °C1011.40 hPa70.00 %15.20 °C 
09:15:0020.20 °C1011.50 hPa73.00 %15.20 °C 
09:00:0019.60 °C1011.60 hPa77.00 %15.50 °C 
08:45:0018.30 °C1011.70 hPa79.00 %14.60 °C 
08:30:0018.00 °C1011.60 hPa79.00 %14.30 °C 
08:15:0017.80 °C1011.70 hPa81.00 %14.50 °C 
08:00:0017.20 °C1011.60 hPa83.00 %14.30 °C 
07:45:0016.80 °C1011.60 hPa86.00 %14.40 °C 
07:30:0016.30 °C1011.60 hPa88.00 %14.30 °C 
07:15:0015.50 °C1011.80 hPa90.00 %13.90 °C 
07:00:0013.40 °C1011.70 hPa91.00 %12.00 °C 
06:45:0012.20 °C1011.70 hPa90.00 %10.60 °C 
06:30:0011.90 °C1011.80 hPa90.00 %10.30 °C 
06:15:0012.00 °C1012.00 hPa89.00 %10.20 °C 
06:00:0012.60 °C1012.00 hPa90.00 %11.00 °C 
05:45:0013.40 °C1012.30 hPa91.00 %12.00 °C 
05:30:0012.70 °C1012.20 hPa92.00 %11.40 °C 
05:15:0011.30 °C1012.30 hPa91.00 %9.90 °C 
05:00:0010.80 °C1012.20 hPa91.00 %9.40 °C 
04:45:0010.80 °C1012.20 hPa91.00 %9.40 °C 
04:30:0010.60 °C1012.40 hPa91.00 %9.20 °C 
04:15:0010.40 °C1012.50 hPa90.00 %8.80 °C 
04:00:0010.20 °C1012.60 hPa90.00 %8.60 °C 
03:45:0010.40 °C1012.60 hPa90.00 %8.80 °C 
03:30:0010.80 °C1012.70 hPa90.00 %9.20 °C 
03:15:0011.00 °C1013.00 hPa90.00 %9.40 °C 
03:00:0010.90 °C1013.20 hPa90.00 %9.30 °C 
02:45:0010.60 °C1013.20 hPa90.00 %9.00 °C 
02:30:0010.70 °C1013.30 hPa90.00 %9.10 °C 
02:15:0010.80 °C1013.50 hPa90.00 %9.20 °C 
02:00:0010.90 °C1013.50 hPa89.00 %9.20 °C 
01:45:0010.80 °C1013.50 hPa89.00 %9.10 °C 
01:30:0010.60 °C1013.80 hPa88.00 %8.70 °C 
01:15:0010.70 °C1013.80 hPa88.00 %8.80 °C 
01:00:0010.60 °C1014.00 hPa88.00 %8.70 °C 
00:45:0010.60 °C1014.00 hPa88.00 %8.70 °C 
00:30:0010.80 °C1014.20 hPa87.00 %8.70 °C 
00:15:0010.80 °C1014.10 hPa87.00 %8.70 °C 
00:00:0010.90 °C1014.20 hPa86.00 %8.70 °C 

Permanenter Link zu dieser Seite: Wetter im Erzgebirge am 04.09.2016
Performance-Info: Die Erstellung der Seite / Statistik(en) / Tabelle(n) erforderte 5 Datenbankserver-Abfrage(n) und dauerte 102 Millisekunden. (Dieser Messwert ist von der Gesamt-Auslastung des Servers abhängig.)
Erzgebirge - Wetter | Erzgebirge - Wetter (Mobilgeräte) | Komplette Klimadatenbank